Time;durP1;ratioP1;P1;durP2;ratioP2;P2;SDS_P1;SDS_P2;PMS_P1;PMS_P2;Temp;Humidity;BMP_temperature;BMP_pressure;BME280_temperature;BME280_humidity;BME280_pressure;Samples;Min_cycle;Max_cycle;Signal;HPM_P1;HPM_P2
2023/07/31 00:00:10;;;;;;;2.83;2.03;;;;;18.50;96799.00;;;;5048172;28;20216;-87
2023/07/31 00:03:00;;;;;;;2.43;1.73;;;;;18.50;96785.00;;;;5048814;28;20227;-88
2023/07/31 00:05:49;;;;;;;2.83;1.30;;;;;18.20;96778.00;;;;5050124;28;20223;-86
2023/07/31 00:08:38;;;;;;;1.47;1.37;;;;;18.10;96776.00;;;;5050572;28;20236;-87
2023/07/31 00:11:27;;;;;;;2.47;1.40;;;;;17.80;96777.00;;;;5049990;28;20676;-88
2023/07/31 00:14:16;;;;;;;2.30;1.77;;;;;18.40;96787.00;;;;5046678;28;20830;-87
2023/07/31 00:17:07;;;;;;;1.50;1.40;;;;;18.40;96781.00;;;;5049564;28;20204;-88
2023/07/31 00:19:56;;;;;;;4.73;1.90;;;;;18.30;96774.00;;;;5049113;28;20831;-86
2023/07/31 00:22:45;;;;;;;3.43;1.60;;;;;18.30;96773.00;;;;5050106;28;20226;-87
2023/07/31 00:25:34;;;;;;;2.20;1.63;;;;;18.20;96778.00;;;;5049522;28;20208;-88
2023/07/31 00:28:23;;;;;;;1.73;1.60;;;;;18.60;96777.00;;;;5047867;28;20201;-88
2023/07/31 00:31:12;;;;;;;5.13;1.20;;;;;18.80;96777.00;;;;5050324;28;20569;-86
2023/07/31 00:34:03;;;;;;;2.93;1.57;;;;;18.60;96779.00;;;;5047829;28;20220;-87
2023/07/31 00:36:52;;;;;;;3.77;2.07;;;;;18.90;96784.00;;;;5046788;28;20257;-87
2023/07/31 00:39:41;;;;;;;5.13;1.60;;;;;19.00;96788.00;;;;5049058;28;20224;-87
2023/07/31 00:42:31;;;;;;;3.50;1.30;;;;;18.70;96780.00;;;;5048315;28;20204;-87
2023/07/31 00:45:20;;;;;;;5.53;1.67;;;;;18.80;96783.00;;;;5049350;28;20204;-88
2023/07/31 00:48:09;;;;;;;2.40;1.80;;;;;18.90;96784.00;;;;5049890;28;20660;-88
2023/07/31 00:51:00;;;;;;;2.03;1.60;;;;;18.90;96795.00;;;;5046747;28;20200;-88
2023/07/31 00:53:50;;;;;;;2.93;1.70;;;;;18.80;96792.00;;;;5050186;28;20618;-88
2023/07/31 00:56:39;;;;;;;2.23;1.90;;;;;18.70;96788.00;;;;5049140;28;20209;-86
2023/07/31 00:59:29;;;;;;;4.37;1.60;;;;;18.50;96788.00;;;;5046578;28;20232;-87
2023/07/31 01:02:18;;;;;;;4.60;1.87;;;;;18.50;96771.00;;;;5046451;28;20200;-87
2023/07/31 01:05:07;;;;;;;2.70;1.57;;;;;18.40;96770.00;;;;5049201;28;20753;-88
2023/07/31 01:08:04;;;;;;;1.63;1.30;;;;;17.90;96771.00;;;;5047845;28;20205;-86
2023/07/31 01:10:57;;;;;;;1.80;1.50;;;;;17.90;96773.00;;;;5049565;28;20219;-87
2023/07/31 01:13:47;;;;;;;4.00;1.27;;;;;17.10;96765.00;;;;5049757;28;20212;-86
2023/07/31 01:16:36;;;;;;;4.07;1.83;;;;;16.90;96773.00;;;;5046925;28;20201;-86
2023/07/31 01:19:26;;;;;;;2.37;2.17;;;;;17.30;96773.00;;;;5048021;28;20220;-87
2023/07/31 01:22:41;;;;;;;5.37;1.57;;;;;17.50;96776.00;;;;5045181;28;20200;-87
2023/07/31 01:26:02;;;;;;;5.57;1.57;;;;;17.70;96771.00;;;;5046741;28;20197;-87
2023/07/31 01:28:57;;;;;;;2.20;1.60;;;;;17.90;96781.00;;;;5045063;28;20208;-87
2023/07/31 01:31:50;;;;;;;2.87;1.70;;;;;17.90;96781.00;;;;5043732;28;20197;-86
2023/07/31 01:34:39;;;;;;;1.80;1.70;;;;;17.90;96769.00;;;;5047131;28;20228;-86
2023/07/31 01:37:30;;;;;;;4.33;1.67;;;;;18.10;96775.00;;;;5045963;28;20200;-87
2023/07/31 01:40:19;;;;;;;5.03;2.17;;;;;18.20;96769.00;;;;5045240;28;20239;-86
2023/07/31 01:43:08;;;;;;;2.27;1.60;;;;;18.30;96773.00;;;;5048418;28;20729;-86
2023/07/31 01:45:59;;;;;;;2.30;1.73;;;;;18.40;96770.00;;;;5047273;28;20553;-86
2023/07/31 01:48:48;;;;;;;2.83;1.90;;;;;18.40;96779.00;;;;5047089;28;20259;-85
2023/07/31 01:51:37;;;;;;;2.63;2.00;;;;;18.20;96769.00;;;;5047652;28;20207;-86
2023/07/31 01:54:26;;;;;;;2.10;1.40;;;;;18.10;96774.00;;;;5047072;28;20217;-86
2023/07/31 01:57:15;;;;;;;3.27;1.77;;;;;18.20;96769.00;;;;5040824;28;20576;-86
2023/07/31 02:00:06;;;;;;;3.03;2.27;;;;;18.00;96765.00;;;;5047507;28;20834;-87
2023/07/31 02:02:56;;;;;;;3.30;2.00;;;;;17.70;96764.00;;;;5045776;28;20216;-88
2023/07/31 02:05:46;;;;;;;3.87;1.53;;;;;17.60;96766.00;;;;5046679;28;20238;-87
2023/07/31 02:08:35;;;;;;;4.37;2.00;;;;;17.30;96766.00;;;;5047552;28;20196;-87
2023/07/31 02:11:24;;;;;;;9.47;2.20;;;;;17.70;96759.00;;;;5048114;28;20197;-86
2023/07/31 02:14:14;;;;;;;2.50;1.70;;;;;17.10;96764.00;;;;5048634;28;20224;-85
2023/07/31 02:17:03;;;;;;;6.47;2.10;;;;;17.00;96763.00;;;;5046927;28;20680;-89
2023/07/31 02:19:53;;;;;;;2.90;1.63;;;;;17.50;96775.00;;;;5046260;28;20229;-90
2023/07/31 02:22:42;;;;;;;2.83;1.67;;;;;17.20;96780.00;;;;5047856;28;20228;-88
2023/07/31 02:25:32;;;;;;;3.60;1.73;;;;;17.10;96769.00;;;;5044603;28;20204;-90
2023/07/31 02:28:21;;;;;;;4.63;2.20;;;;;16.60;96771.00;;;;5044664;28;20223;-89
2023/07/31 02:31:10;;;;;;;1.93;1.57;;;;;16.80;96776.00;;;;5043184;28;20197;-90
2023/07/31 02:33:59;;;;;;;1.77;1.57;;;;;17.00;96772.00;;;;5048367;28;20226;-90
2023/07/31 02:36:50;;;;;;;4.13;1.90;;;;;17.30;96776.00;;;;5049547;28;20315;-92
2023/07/31 02:39:39;;;;;;;5.87;1.77;;;;;17.40;96769.00;;;;5046469;28;20227;-89
2023/07/31 02:42:28;;;;;;;2.40;1.70;;;;;17.50;96775.00;;;;5044012;28;20208;-89
2023/07/31 02:45:17;;;;;;;5.40;2.20;;;;;17.40;96774.00;;;;5048019;28;20810;-90
2023/07/31 02:48:07;;;;;;;5.00;1.47;;;;;16.60;96770.00;;;;5047129;28;20213;-89
2023/07/31 02:50:56;;;;;;;2.40;1.83;;;;;16.70;96776.00;;;;5045256;28;20737;-88
2023/07/31 02:53:46;;;;;;;5.67;3.50;;;;;16.60;96779.00;;;;5047296;28;20225;-88
2023/07/31 02:56:35;;;;;;;2.07;1.83;;;;;17.00;96777.00;;;;5045152;28;20672;-89
2023/07/31 02:59:25;;;;;;;1.93;1.73;;;;;17.40;96774.00;;;;5046347;28;20917;-88
2023/07/31 03:02:14;;;;;;;2.07;1.47;;;;;17.10;96782.00;;;;5046911;28;20196;-87
2023/07/31 03:05:03;;;;;;;4.13;1.83;;;;;17.00;96788.00;;;;5048285;28;20694;-88
2023/07/31 03:07:52;;;;;;;1.83;1.63;;;;;17.10;96787.00;;;;5046523;28;20203;-88
2023/07/31 03:10:43;;;;;;;3.60;1.43;;;;;17.20;96794.00;;;;5045788;28;20211;-88
2023/07/31 03:13:32;;;;;;;2.87;1.23;;;;;16.70;96797.00;;;;5046369;28;20216;-88
2023/07/31 03:16:21;;;;;;;3.73;2.10;;;;;16.80;96802.00;;;;5047757;28;20200;-88
2023/07/31 03:19:10;;;;;;;2.53;2.10;;;;;17.00;96797.00;;;;5047988;28;20207;-88
2023/07/31 03:21:59;;;;;;;7.13;6.43;;;;;17.10;96803.00;;;;5045920;28;20200;-87
2023/07/31 03:24:48;;;;;;;2.00;1.73;;;;;16.60;96800.00;;;;5046132;28;20216;-88
2023/07/31 03:27:39;;;;;;;6.33;2.67;;;;;17.10;96796.00;;;;5047423;28;20209;-88
2023/07/31 03:30:28;;;;;;;3.83;1.70;;;;;17.20;96799.00;;;;5044761;28;20204;-87
2023/07/31 03:33:17;;;;;;;3.87;1.93;;;;;16.90;96804.00;;;;5043395;28;20223;-87
2023/07/31 03:36:07;;;;;;;2.60;1.73;;;;;16.10;96798.00;;;;5047067;28;20205;-87
2023/07/31 03:38:56;;;;;;;1.80;1.63;;;;;16.40;96798.00;;;;5046515;28;20197;-87
2023/07/31 03:41:45;;;;;;;2.77;2.23;;;;;16.10;96791.00;;;;5046558;28;20220;-90
2023/07/31 03:44:36;;;;;;;3.63;1.50;;;;;16.70;96804.00;;;;5045963;28;20235;-88
2023/07/31 03:47:25;;;;;;;1.47;1.37;;;;;16.50;96796.00;;;;5047124;28;20219;-89
2023/07/31 03:50:14;;;;;;;3.33;2.17;;;;;16.30;96805.00;;;;5045094;28;20193;-88
2023/07/31 03:53:03;;;;;;;2.73;1.80;;;;;15.80;96790.00;;;;5047248;28;20231;-89
2023/07/31 03:55:52;;;;;;;5.23;2.07;;;;;15.70;96790.00;;;;5049122;28;20539;-89
2023/07/31 03:58:42;;;;;;;4.33;2.07;;;;;15.90;96796.00;;;;5049409;28;20209;-89
2023/07/31 04:01:32;;;;;;;4.10;1.93;;;;;16.30;96805.00;;;;5046197;28;20227;-88
2023/07/31 04:04:21;;;;;;;3.37;1.60;;;;;16.30;96799.00;;;;5047468;28;20212;-89
2023/07/31 04:07:10;;;;;;;4.93;2.00;;;;;15.40;96797.00;;;;5050672;28;20208;-88
2023/07/31 04:10:10;;;;;;;3.73;2.40;;;;;16.10;96790.00;;;;5049779;28;20683;-88
2023/07/31 04:13:01;;;;;;;2.63;2.27;;;;;16.40;96795.00;;;;5048429;28;20690;-88
2023/07/31 04:15:51;;;;;;;2.30;2.10;;;;;16.70;96802.00;;;;5048113;28;20201;-89
2023/07/31 04:18:41;;;;;;;6.87;2.10;;;;;16.70;96791.00;;;;5051837;28;20220;-90
2023/07/31 04:21:30;;;;;;;2.43;2.10;;;;;16.80;96799.00;;;;5048004;28;20776;-88
2023/07/31 04:24:24;;;;;;;2.70;1.87;;;;;16.90;96795.00;;;;5050567;28;21020;-87
2023/07/31 04:27:13;;;;;;;2.00;1.80;;;;;17.00;96794.00;;;;5050832;28;20215;-88
2023/07/31 04:30:02;;;;;;;2.93;1.90;;;;;16.70;96796.00;;;;5049656;28;20200;-88
2023/07/31 04:32:51;;;;;;;7.50;2.00;;;;;16.90;96795.00;;;;5047946;28;20220;-88
2023/07/31 04:35:42;;;;;;;5.30;2.80;;;;;16.70;96810.00;;;;5049113;28;20231;-88
2023/07/31 04:38:31;;;;;;;3.87;2.23;;;;;16.60;96804.00;;;;5049660;28;20204;-89
2023/07/31 04:41:21;;;;;;;2.17;1.97;;;;;16.70;96808.00;;;;5050511;28;20232;-90
2023/07/31 04:44:11;;;;;;;2.40;1.93;;;;;16.90;96811.00;;;;5050841;28;20228;-89
2023/07/31 04:47:00;;;;;;;3.97;2.23;;;;;17.40;96802.00;;;;5049208;28;20208;-88
2023/07/31 04:49:49;;;;;;;3.03;2.23;;;;;17.40;96796.00;;;;5050287;28;20219;-89
2023/07/31 04:52:40;;;;;;;2.90;2.00;;;;;17.20;96799.00;;;;5049809;28;20205;-90
2023/07/31 04:55:29;;;;;;;1.93;1.67;;;;;17.30;96788.00;;;;5049866;28;20201;-89
2023/07/31 04:58:18;;;;;;;2.80;1.77;;;;;17.30;96792.00;;;;5047145;28;20216;-89
2023/07/31 05:01:07;;;;;;;4.90;2.30;;;;;17.10;96797.00;;;;5046731;28;20734;-89
2023/07/31 05:03:56;;;;;;;3.53;2.00;;;;;16.90;96793.00;;;;5046132;28;20220;-88
2023/07/31 05:06:45;;;;;;;2.87;1.80;;;;;16.60;96799.00;;;;5047745;28;20196;-88
2023/07/31 05:09:36;;;;;;;5.30;2.00;;;;;17.20;96800.00;;;;5048941;28;20209;-89
2023/07/31 05:12:25;;;;;;;3.93;2.20;;;;;17.70;96808.00;;;;5046267;28;20197;-88
2023/07/31 05:15:14;;;;;;;3.60;2.10;;;;;17.80;96814.00;;;;5047372;28;20246;-88
2023/07/31 05:18:03;;;;;;;3.17;1.90;;;;;17.60;96816.00;;;;5047844;28;20207;-88
2023/07/31 05:20:52;;;;;;;2.07;1.97;;;;;17.60;96818.00;;;;5044591;28;20235;-87
2023/07/31 05:23:42;;;;;;;3.20;2.57;;;;;17.30;96817.00;;;;5048980;28;20235;-87
2023/07/31 05:26:32;;;;;;;4.07;2.00;;;;;17.60;96825.00;;;;5047602;28;20200;-88
2023/07/31 05:29:21;;;;;;;5.77;2.20;;;;;17.80;96821.00;;;;5047406;28;20548;-88
2023/07/31 05:32:11;;;;;;;1.77;1.47;;;;;18.10;96830.00;;;;5048317;28;20792;-88
2023/07/31 05:35:00;;;;;;;2.63;2.00;;;;;18.60;96823.00;;;;5049410;28;20200;-88
2023/07/31 05:37:49;;;;;;;1.73;1.60;;;;;18.60;96831.00;;;;5043787;28;20570;-88
2023/07/31 05:40:38;;;;;;;3.90;1.70;;;;;18.40;96831.00;;;;5041968;28;20208;-88
2023/07/31 05:43:29;;;;;;;1.63;1.53;;;;;18.50;96837.00;;;;5046022;28;20221;-88
2023/07/31 05:46:18;;;;;;;4.37;2.10;;;;;19.00;96837.00;;;;5046455;28;20211;-88
2023/07/31 05:49:08;;;;;;;4.37;1.83;;;;;18.90;96845.00;;;;5043550;28;20774;-89
2023/07/31 05:51:57;;;;;;;2.50;1.50;;;;;19.30;96833.00;;;;5047288;28;20196;-89
2023/07/31 05:54:46;;;;;;;4.07;2.40;;;;;19.40;96836.00;;;;5052524;28;20239;-87
2023/07/31 05:57:36;;;;;;;5.47;2.53;;;;;19.70;96840.00;;;;5048452;28;20679;-89
2023/07/31 06:00:29;;;;;;;6.17;2.00;;;;;19.40;96825.00;;;;5041593;28;20216;-87
2023/07/31 06:03:18;;;;;;;4.77;2.20;;;;;19.90;96834.00;;;;5048494;28;20227;-88
2023/07/31 06:06:07;;;;;;;2.67;2.40;;;;;19.90;96826.00;;;;5045137;28;20302;-89
2023/07/31 06:08:56;;;;;;;2.93;1.93;;;;;19.90;96821.00;;;;5044952;28;20213;-88
2023/07/31 06:11:46;;;;;;;4.03;1.90;;;;;20.20;96829.00;;;;5046535;28;20216;-88
2023/07/31 06:14:35;;;;;;;2.93;2.00;;;;;20.40;96827.00;;;;5041211;28;20232;-88
2023/07/31 06:17:25;;;;;;;2.57;1.90;;;;;20.30;96833.00;;;;5045073;28;20226;-88
2023/07/31 06:20:15;;;;;;;4.77;2.23;;;;;20.50;96827.00;;;;5044253;28;20453;-88
2023/07/31 06:23:04;;;;;;;2.97;2.50;;;;;20.80;96827.00;;;;5048495;28;20239;-88
2023/07/31 06:25:53;;;;;;;3.83;2.17;;;;;20.60;96823.00;;;;5045663;28;20224;-88
2023/07/31 06:28:42;;;;;;;2.07;1.67;;;;;20.70;96827.00;;;;5048115;28;20204;-89
2023/07/31 06:31:31;;;;;;;2.77;2.30;;;;;20.90;96825.00;;;;5046033;28;20203;-89
2023/07/31 06:34:22;;;;;;;2.93;2.20;;;;;21.20;96820.00;;;;5045646;28;20231;-88
2023/07/31 06:37:11;;;;;;;3.83;2.60;;;;;21.50;96827.00;;;;5049073;28;20196;-88
2023/07/31 06:40:00;;;;;;;4.70;1.97;;;;;21.60;96825.00;;;;5048793;28;20201;-88
2023/07/31 06:42:49;;;;;;;3.83;2.30;;;;;22.30;96819.00;;;;5039794;28;20225;-89
2023/07/31 06:45:39;;;;;;;5.33;2.00;;;;;22.70;96818.00;;;;5047149;28;20200;-88
2023/07/31 06:48:28;;;;;;;3.93;2.13;;;;;23.00;96814.00;;;;5045098;28;20204;-88
2023/07/31 06:51:18;;;;;;;5.13;2.40;;;;;23.20;96815.00;;;;5043871;28;20249;-88
2023/07/31 06:54:08;;;;;;;2.70;2.27;;;;;23.40;96809.00;;;;5048218;28;20334;-88
2023/07/31 06:56:57;;;;;;;5.60;2.30;;;;;23.70;96814.00;;;;5048950;28;20208;-88
2023/07/31 06:59:46;;;;;;;3.67;2.10;;;;;23.80;96811.00;;;;5047338;28;20201;-88
2023/07/31 07:02:36;;;;;;;3.03;2.40;;;;;23.80;96819.00;;;;5045667;28;20228;-87
2023/07/31 07:05:25;;;;;;;4.07;2.33;;;;;23.70;96811.00;;;;5048500;28;20231;-87
2023/07/31 07:08:16;;;;;;;2.50;2.10;;;;;23.80;96815.00;;;;5048369;28;20200;-88
2023/07/31 07:11:05;;;;;;;4.63;2.03;;;;;24.40;96807.00;;;;5047708;28;20420;-90
2023/07/31 07:13:55;;;;;;;3.70;2.60;;;;;24.70;96815.00;;;;5047662;28;20230;-88
2023/07/31 07:16:44;;;;;;;3.70;1.90;;;;;24.90;96812.00;;;;5047676;28;20209;-88
2023/07/31 07:19:33;;;;;;;4.30;1.97;;;;;24.70;96808.00;;;;5048509;28;20660;-88
2023/07/31 07:22:22;;;;;;;3.07;2.50;;;;;24.90;96812.00;;;;5043388;28;20227;-88
2023/07/31 07:25:13;;;;;;;1.77;1.53;;;;;25.00;96802.00;;;;5047954;28;20204;-89
2023/07/31 07:28:02;;;;;;;6.57;1.90;;;;;25.60;96822.00;;;;5047819;28;20196;-88
2023/07/31 07:30:54;;;;;;;3.87;1.87;;;;;25.60;96821.00;;;;5051312;28;20215;-88
2023/07/31 07:33:43;;;;;;;4.97;1.70;;;;;25.80;96805.00;;;;5051576;28;20262;-88
2023/07/31 07:36:33;;;;;;;1.70;1.60;;;;;26.00;96812.00;;;;5049377;28;20201;-87
2023/07/31 07:39:22;;;;;;;2.60;1.77;;;;;25.80;96812.00;;;;5052024;28;20223;-88
2023/07/31 07:42:13;;;;;;;5.40;1.87;;;;;26.00;96810.00;;;;5050119;28;20228;-88
2023/07/31 07:45:02;;;;;;;1.73;1.30;;;;;26.20;96800.00;;;;5050500;28;20204;-89
2023/07/31 07:47:52;;;;;;;2.43;1.80;;;;;26.10;96809.00;;;;5049317;28;20204;-88
2023/07/31 07:50:41;;;;;;;2.10;1.70;;;;;26.40;96802.00;;;;5050112;28;20935;-87
2023/07/31 07:53:30;;;;;;;3.37;2.43;;;;;26.30;96792.00;;;;5048513;28;20600;-89
2023/07/31 07:56:19;;;;;;;1.40;1.30;;;;;26.50;96799.00;;;;5047680;28;20207;-89
2023/07/31 07:59:12;;;;;;;1.93;1.73;;;;;26.50;96798.00;;;;5051114;28;20197;-89
2023/07/31 08:02:01;;;;;;;3.70;2.70;;;;;26.20;96791.00;;;;5048796;28;20248;-88
2023/07/31 08:04:51;;;;;;;2.80;1.70;;;;;25.70;96793.00;;;;5050864;28;20220;-89
2023/07/31 08:07:40;;;;;;;2.37;1.70;;;;;25.90;96792.00;;;;5049381;28;20613;-89
2023/07/31 08:10:29;;;;;;;4.40;2.10;;;;;26.50;96793.00;;;;5050192;28;20205;-89
2023/07/31 08:13:18;;;;;;;2.70;1.90;;;;;26.90;96796.00;;;;5048902;28;20220;-87
2023/07/31 08:16:09;;;;;;;2.63;2.00;;;;;25.80;96796.00;;;;5049139;28;20209;-88
2023/07/31 08:18:59;;;;;;;2.07;1.53;;;;;26.40;96783.00;;;;5044157;28;20200;-89
2023/07/31 08:21:48;;;;;;;1.60;1.50;;;;;27.10;96782.00;;;;5049300;28;20213;-88
2023/07/31 08:24:37;;;;;;;6.33;1.83;;;;;27.50;96786.00;;;;5049363;28;20703;-90
2023/07/31 08:27:26;;;;;;;2.50;1.77;;;;;27.40;96780.00;;;;5050324;28;20212;-90
2023/07/31 08:30:15;;;;;;;1.97;1.40;;;;;27.20;96783.00;;;;5048493;28;20194;-89
2023/07/31 08:33:06;;;;;;;1.80;1.40;;;;;27.90;96792.00;;;;5048605;28;20217;-89
2023/07/31 08:35:55;;;;;;;1.97;1.60;;;;;27.50;96770.00;;;;5048385;28;20672;-89
2023/07/31 08:38:45;;;;;;;1.73;1.63;;;;;26.60;96779.00;;;;5047452;28;20204;-88
2023/07/31 08:41:39;;;;;;;2.20;1.50;;;;;27.40;96779.00;;;;5048125;28;20258;-88
2023/07/31 08:44:30;;;;;;;1.93;1.83;;;;;28.60;96784.00;;;;5047956;28;20232;-89
2023/07/31 08:47:21;;;;;;;2.07;1.87;;;;;28.10;96771.00;;;;5047490;28;20660;-90
2023/07/31 08:50:11;;;;;;;2.37;1.60;;;;;27.90;96774.00;;;;5050628;28;20195;-90
2023/07/31 08:53:01;;;;;;;2.60;2.00;;;;;27.40;96779.00;;;;5045103;28;20625;-89
2023/07/31 08:55:50;;;;;;;2.00;1.60;;;;;27.70;96790.00;;;;5048628;28;20205;-88
2023/07/31 08:58:41;;;;;;;1.50;1.37;;;;;27.20;96780.00;;;;5049457;28;20680;-89
2023/07/31 09:01:31;;;;;;;1.70;1.60;;;;;28.20;96777.00;;;;5046850;28;20206;-90
2023/07/31 09:04:21;;;;;;;2.90;2.03;;;;;28.60;96777.00;;;;5046100;28;20230;-87
2023/07/31 09:07:13;;;;;;;3.67;2.03;;;;;27.10;96777.00;;;;5050315;28;20206;-86
2023/07/31 09:10:02;;;;;;;2.70;1.83;;;;;27.30;96788.00;;;;5048024;28;20206;-86
2023/07/31 09:12:53;;;;;;;2.17;1.63;;;;;26.90;96770.00;;;;5050222;28;20222;-86
2023/07/31 09:15:44;;;;;;;2.50;1.97;;;;;27.30;96794.00;;;;5050352;28;20210;-88
2023/07/31 09:18:33;;;;;;;4.57;1.80;;;;;28.30;96771.00;;;;5049221;28;20214;-90
2023/07/31 09:21:22;;;;;;;2.67;1.77;;;;;29.20;96769.00;;;;5050552;28;20212;-90
2023/07/31 09:24:27;;;;;;;2.97;2.20;;;;;28.80;96797.00;;;;5049218;28;20236;-89
2023/07/31 09:27:16;;;;;;;2.47;2.13;;;;;28.00;96784.00;;;;5045103;28;20203;-89
2023/07/31 09:30:06;;;;;;;4.57;2.17;;;;;28.90;96781.00;;;;5048182;28;20213;-88
2023/07/31 09:33:05;;;;;;;3.83;1.60;;;;;29.80;96771.00;;;;5049235;28;20215;-89
2023/07/31 09:35:55;;;;;;;2.30;1.67;;;;;30.10;96767.00;;;;5048287;28;20206;-89
2023/07/31 09:38:45;;;;;;;1.60;1.50;;;;;30.40;96772.00;;;;5042767;28;20593;-88
2023/07/31 09:41:38;;;;;;;1.97;1.70;;;;;30.70;96768.00;;;;5047693;28;20216;-89
2023/07/31 09:44:41;;;;;;;3.63;2.40;;;;;30.20;96769.00;;;;5046359;28;20268;-88
2023/07/31 09:47:30;;;;;;;2.87;1.67;;;;;30.80;96770.00;;;;5046397;28;20202;-89
2023/07/31 09:50:20;;;;;;;3.73;1.97;;;;;30.40;96768.00;;;;5048738;28;20204;-91
2023/07/31 09:53:10;;;;;;;1.77;1.63;;;;;30.50;96758.00;;;;5047195;28;20249;-91
2023/07/31 09:56:00;;;;;;;5.87;2.10;;;;;30.00;96762.00;;;;5048298;28;20205;-90
2023/07/31 09:58:51;;;;;;;2.23;1.73;;;;;30.20;96759.00;;;;5049543;28;20685;-88
2023/07/31 10:01:41;;;;;;;3.20;1.33;;;;;30.00;96751.00;;;;5048926;28;20212;-87
2023/07/31 10:04:31;;;;;;;3.40;1.33;;;;;30.40;96731.00;;;;5046618;28;20234;-87
2023/07/31 10:07:22;;;;;;;5.10;1.80;;;;;31.00;96739.00;;;;5046397;28;20198;-89
2023/07/31 10:10:11;;;;;;;2.33;1.70;;;;;31.20;96721.00;;;;5049960;28;20198;-88
2023/07/31 10:13:01;;;;;;;3.23;1.57;;;;;31.50;96732.00;;;;5049704;28;20234;-87
2023/07/31 10:15:52;;;;;;;2.87;1.63;;;;;31.60;96719.00;;;;5047272;28;20694;-86
2023/07/31 10:18:41;;;;;;;2.27;2.03;;;;;31.80;96739.00;;;;5048443;28;20212;-87
2023/07/31 10:21:34;;;;;;;2.53;1.70;;;;;32.10;96711.00;;;;5046339;28;20209;-89
2023/07/31 10:24:24;;;;;;;1.73;1.63;;;;;32.00;96707.00;;;;5047650;28;20223;-90
2023/07/31 10:27:13;;;;;;;5.40;1.87;;;;;32.20;96710.00;;;;5043941;28;20662;-90
2023/07/31 10:30:05;;;;;;;1.97;1.40;;;;;32.90;96704.00;;;;5047728;28;20195;-87
2023/07/31 10:32:56;;;;;;;2.57;2.33;;;;;33.10;96727.00;;;;5045009;28;20227;-90
2023/07/31 10:35:46;;;;;;;2.60;1.90;;;;;33.20;96706.00;;;;5048583;28;20202;-88
2023/07/31 10:38:35;;;;;;;1.63;1.50;;;;;33.10;96701.00;;;;5046834;28;20594;-88
2023/07/31 10:41:31;;;;;;;2.33;1.80;;;29.70;88.60;33.10;96725.00;;;;5046982;28;20207;-88
2023/07/31 10:44:20;;;;;;;2.15;1.95;;;29.60;90.00;31.10;96732.00;;;;5050017;28;20230;-89
2023/07/31 10:47:11;;;;;;;2.20;2.00;;;29.20;88.60;29.50;96727.00;;;;5044921;28;20200;-90
2023/07/31 10:50:18;;;;;;;2.43;2.23;;;28.40;87.20;30.70;96710.00;;;;5039189;28;20713;-89
2023/07/31 10:53:08;;;;;;;3.20;1.60;;;27.90;89.90;29.00;96715.00;;;;5049376;28;20262;-90
2023/07/31 10:56:00;;;;;;;1.90;1.63;;;27.50;90.00;29.50;96708.00;;;;5045708;28;20679;-91
2023/07/31 10:59:03;;;;;;;3.20;2.17;;;27.20;90.40;29.80;96718.00;;;;5045715;28;20193;-88
2023/07/31 11:01:53;;;;;;;3.70;1.77;;;27.10;91.00;29.50;96710.00;;;;5046748;28;20695;-87
2023/07/31 11:04:43;;;;;;;5.03;2.37;;;27.00;90.60;30.00;96715.00;;;;5051580;28;20614;-86
2023/07/31 11:07:50;;;;;;;2.13;1.87;;;27.00;91.60;29.80;96712.00;;;;5049362;28;20706;-88
2023/07/31 11:10:39;;;;;;;2.20;2.00;;;27.00;91.20;29.30;96720.00;;;;5050202;28;20188;-90
2023/07/31 11:13:29;;;;;;;2.70;2.20;;;26.90;92.00;28.90;96718.00;;;;5051930;28;20217;-91
2023/07/31 11:16:20;;;;;;;2.10;1.90;;;26.70;91.60;28.60;96708.00;;;;5052497;28;20202;-89
2023/07/31 11:19:10;;;;;;;2.50;2.03;;;26.40;92.50;28.70;96699.00;;;;5051565;28;20198;-89
2023/07/31 11:21:59;;;;;;;2.53;2.03;;;26.30;93.80;28.40;96711.00;;;;5050849;28;20200;-89
2023/07/31 11:24:50;;;;;;;1.90;1.80;;;26.10;94.40;28.40;96708.00;;;;5052320;28;20726;-89
2023/07/31 11:27:42;;;;;;;3.00;2.00;;;26.00;94.30;28.50;96700.00;;;;5051209;28;20204;-89
2023/07/31 11:30:30;;;;;;;3.47;2.00;;;25.90;94.30;28.60;96702.00;;;;5050953;28;20581;-88
2023/07/31 11:33:19;;;;;;;2.33;1.83;;;25.80;94.30;28.50;96700.00;;;;5051431;28;20216;-87
2023/07/31 11:36:15;;;;;;;2.60;1.97;;;25.80;94.40;28.00;96696.00;;;;5050649;28;20223;-89
2023/07/31 11:39:08;;;;;;;2.37;1.90;;;25.70;93.80;28.20;96692.00;;;;5050043;28;20197;-89
2023/07/31 11:42:02;;;;;;;3.37;2.83;;;25.60;95.30;27.90;96702.00;;;;5048181;28;20205;-88
2023/07/31 11:44:51;;;;;;;2.73;1.93;;;25.50;96.40;28.00;96696.00;;;;5050664;28;20195;-88
2023/07/31 11:47:40;;;;;;;2.60;2.00;;;25.40;96.40;28.00;96682.00;;;;5050783;28;20219;-89
2023/07/31 11:50:29;;;;;;;4.50;1.80;;;25.40;96.80;28.00;96690.00;;;;5049813;28;20203;-88
2023/07/31 11:53:28;;;;;;;4.90;2.23;;;25.40;97.10;28.10;96676.00;;;;5051770;28;20228;-89
2023/07/31 11:56:20;;;;;;;5.00;2.17;;;25.30;97.30;28.20;96668.00;;;;5048161;28;20221;-89
2023/07/31 11:59:40;;;;;;;3.60;1.93;;;25.40;97.50;30.40;96605.00;;;;5050893;28;20208;-89
2023/07/31 12:02:29;;;;;;;4.90;1.90;;;26.00;98.40;30.00;96678.00;;;;5047581;28;20217;-89
2023/07/31 12:05:18;;;;;;;2.30;2.10;;;26.40;97.10;29.30;96670.00;;;;5059277;28;20213;-87
2023/07/31 12:08:12;;;;;;;3.50;1.60;;;26.50;96.70;29.30;96671.00;;;;5059977;28;20211;-88
2023/07/31 12:11:05;;;;;;;2.10;1.90;;;26.40;97.00;29.20;96671.00;;;;5059943;28;20196;-88
2023/07/31 12:13:54;;;;;;;2.20;2.00;;;26.40;97.10;29.10;96659.00;;;;5066582;28;20213;-89
2023/07/31 12:16:45;;;;;;;1.60;1.47;;;26.40;96.80;29.40;96646.00;;;;5061462;28;20208;-88
2023/07/31 12:19:34;;;;;;;3.57;1.93;;;26.40;97.10;29.50;96631.00;;;;5057984;28;20213;-89
2023/07/31 12:22:23;;;;;;;3.60;2.00;;;26.50;97.20;30.20;96631.00;;;;5060079;28;20194;-87
2023/07/31 12:25:17;;;;;;;2.93;1.87;;;26.70;97.60;29.90;96605.00;;;;5064251;28;20205;-87
2023/07/31 12:28:11;;;;;;;2.87;2.13;;;26.90;97.00;30.00;96614.00;;;;5059261;28;20212;-92
2023/07/31 12:31:02;;;;;;;2.23;1.80;;;27.00;96.80;30.00;96619.00;;;;5059281;28;20246;-89
2023/07/31 12:33:53;;;;;;;2.47;1.70;;;27.00;96.70;29.80;96607.00;;;;5059060;28;20620;-88
2023/07/31 12:36:43;;;;;;;3.97;2.27;;;27.00;96.30;29.70;96614.00;;;;5055974;28;20200;-88
2023/07/31 12:39:32;;;;;;;2.13;1.87;;;27.00;96.50;29.50;96608.00;;;;5062047;28;20209;-89
2023/07/31 12:42:21;;;;;;;2.97;1.87;;;26.90;96.50;29.60;96601.00;;;;5050557;28;20208;-89
2023/07/31 12:45:10;;;;;;;3.27;2.07;;;26.80;96.50;29.30;96604.00;;;;5054235;28;20202;-89
2023/07/31 12:47:59;;;;;;;2.97;1.87;;;26.70;96.50;29.00;96610.00;;;;5055447;28;20229;-89
2023/07/31 12:50:52;;;;;;;3.50;2.07;;;26.60;97.30;28.70;96603.00;;;;5054806;28;20198;-89
2023/07/31 12:53:41;;;;;;;2.40;1.90;;;26.30;96.90;28.40;96605.00;;;;5056341;28;20226;-90
2023/07/31 12:56:30;;;;;;;2.17;1.93;;;26.20;97.10;27.90;96604.00;;;;5051630;28;20226;-90
2023/07/31 12:59:19;;;;;;;3.80;1.80;;;25.90;96.70;28.20;96603.00;;;;5050945;28;20220;-88
2023/07/31 13:02:08;;;;;;;3.13;1.97;;;25.70;97.10;28.30;96601.00;;;;5052882;28;20894;-88
2023/07/31 13:04:57;;;;;;;4.47;1.80;;;25.60;97.80;28.20;96598.00;;;;5054962;28;20214;-89
2023/07/31 13:07:47;;;;;;;2.07;1.77;;;25.60;98.20;28.10;96602.00;;;;5045414;28;20207;-89
2023/07/31 13:10:36;;;;;;;3.17;2.13;;;25.40;98.70;28.00;96603.00;;;;5055343;28;20615;-89
2023/07/31 13:13:25;;;;;;;3.20;2.13;;;25.30;99.60;28.00;96592.00;;;;5053947;28;20226;-89
2023/07/31 13:16:14;;;;;;;3.17;2.10;;;25.30;99.90;28.20;96583.00;;;;5049351;28;20218;-89
2023/07/31 13:19:08;;;;;;;2.10;1.90;;;25.30;99.90;28.00;96580.00;;;;5048375;28;20675;-88
2023/07/31 13:21:57;;;;;;;2.73;2.40;;;25.30;99.90;28.10;96579.00;;;;5042904;28;20199;-88
2023/07/31 13:24:47;;;;;;;5.67;2.20;;;25.30;99.90;27.90;96490.00;;;;5049131;28;20227;-90
2023/07/31 13:27:36;;;;;;;4.47;2.47;;;25.40;99.60;28.80;96559.00;;;;5048342;28;20207;-88
2023/07/31 13:30:27;;;;;;;3.20;2.30;;;25.60;99.40;29.10;96560.00;;;;5046381;28;20212;-89
2023/07/31 13:33:16;;;;;;;3.87;2.27;;;25.80;99.40;28.50;96573.00;;;;5045936;28;20234;-89
2023/07/31 13:36:09;;;;;;;2.43;1.90;;;25.80;99.10;28.60;96565.00;;;;5048305;28;20222;-89
2023/07/31 13:38:57;;;;;;;3.20;2.17;;;25.80;99.30;29.50;96484.00;;;;5049425;28;20209;-88
2023/07/31 13:41:48;;;;;;;2.77;2.17;;;26.00;99.60;32.10;96492.00;;;;5049145;28;20210;-89
2023/07/31 13:44:36;;;;;;;7.17;2.10;;;26.90;99.90;32.70;96509.00;;;;5048435;28;20246;-88
2023/07/31 13:47:25;;;;;;;2.30;1.53;;;27.80;99.30;33.50;96497.00;;;;5049743;28;20705;-90